createdAt,value
2019-03-20T00:01:55.211Z,12.00
2019-03-20T00:04:23.695Z,13.93
2019-03-20T00:06:52.133Z,14.13
2019-03-20T00:09:20.563Z,14.83
2019-03-20T00:11:49.064Z,14.13
2019-03-20T00:14:17.555Z,13.90
2019-03-20T00:16:46.039Z,12.60
2019-03-20T00:19:14.531Z,12.97
2019-03-20T00:21:43.075Z,12.90
2019-03-20T00:24:11.495Z,12.20
2019-03-20T00:26:39.915Z,13.20
2019-03-20T00:29:08.487Z,12.77
2019-03-20T00:31:36.987Z,13.27
2019-03-20T00:34:05.477Z,12.63
2019-03-20T00:36:33.887Z,11.83
2019-03-20T00:39:02.319Z,11.97
2019-03-20T00:41:30.715Z,12.70
2019-03-20T00:43:59.147Z,13.10
2019-03-20T00:46:27.627Z,13.27
2019-03-20T00:48:56.127Z,13.43
2019-03-20T00:51:24.544Z,13.00
2019-03-20T00:53:52.943Z,13.27
2019-03-20T00:56:21.372Z,13.50
2019-03-20T00:58:49.788Z,13.50
2019-03-20T01:01:18.294Z,13.50
2019-03-20T01:03:46.776Z,14.03
2019-03-20T01:06:15.259Z,12.43
2019-03-20T01:08:43.743Z,13.30
2019-03-20T01:11:12.231Z,14.43
2019-03-20T01:13:40.716Z,13.30
2019-03-20T01:16:09.196Z,13.70
2019-03-20T01:18:37.624Z,14.23
2019-03-20T01:21:06.104Z,13.40
2019-03-20T01:23:34.513Z,13.47
2019-03-20T01:26:03.033Z,13.10
2019-03-20T01:28:31.436Z,14.00
2019-03-20T01:30:59.956Z,13.73
2019-03-20T01:33:28.372Z,13.80
2019-03-20T01:35:56.861Z,12.80
2019-03-20T01:38:25.433Z,13.30
2019-03-20T01:40:53.854Z,13.97
2019-03-20T01:43:22.328Z,13.70
2019-03-20T01:45:50.889Z,13.60
2019-03-20T01:48:19.368Z,14.27
2019-03-20T01:50:47.845Z,13.17
2019-03-20T01:53:16.349Z,13.93
2019-03-20T01:55:44.965Z,13.50
2019-03-20T01:58:13.436Z,12.63
2019-03-20T02:00:42.209Z,13.43
2019-03-20T02:03:10.706Z,13.43
2019-03-20T02:05:39.197Z,14.10
2019-03-20T02:08:07.681Z,13.23
2019-03-20T02:10:36.185Z,13.67
2019-03-20T02:13:04.776Z,13.20
2019-03-20T02:15:38.712Z,12.63
2019-03-20T02:18:03.489Z,13.43
2019-03-20T02:20:31.881Z,13.80
2019-03-20T02:23:00.285Z,13.07
2019-03-20T02:25:28.737Z,13.83
2019-03-20T02:27:57.153Z,13.40
2019-03-20T02:30:25.565Z,12.70
2019-03-20T02:32:54.070Z,12.97
2019-03-20T02:35:22.481Z,14.03
2019-03-20T02:37:50.961Z,14.03
2019-03-20T02:40:19.501Z,15.07
2019-03-20T02:42:48.335Z,12.93
2019-03-20T02:45:16.916Z,14.50
2019-03-20T02:47:45.407Z,17.07
2019-03-20T02:50:13.928Z,16.73
2019-03-20T02:52:42.400Z,15.10
2019-03-20T02:55:10.989Z,14.67
2019-03-20T02:57:39.482Z,15.33
2019-03-20T03:00:08.937Z,15.93
2019-03-20T03:02:37.366Z,15.87
2019-03-20T03:05:05.893Z,15.03
2019-03-20T03:07:34.299Z,17.60
2019-03-20T03:10:02.810Z,16.47
2019-03-20T03:12:31.219Z,14.93
2019-03-20T03:14:59.618Z,15.50
2019-03-20T03:17:28.050Z,16.00
2019-03-20T03:19:56.474Z,15.40
2019-03-20T03:22:25.311Z,14.33
2019-03-20T03:24:53.735Z,14.80
2019-03-20T03:27:22.201Z,12.03
2019-03-20T03:29:50.623Z,12.00
2019-03-20T03:32:19.065Z,12.87
2019-03-20T03:34:47.642Z,14.03
2019-03-20T03:37:16.139Z,13.33
2019-03-20T03:39:44.623Z,13.20
2019-03-20T03:42:13.203Z,12.70
2019-03-20T03:44:41.604Z,12.10
2019-03-20T03:47:10.452Z,12.23
2019-03-20T03:49:39.158Z,12.00
2019-03-20T03:52:07.935Z,12.20
2019-03-20T03:54:36.828Z,11.63
2019-03-20T03:57:05.423Z,12.40
2019-03-20T03:59:33.915Z,12.30
2019-03-20T04:02:02.437Z,12.37
2019-03-20T04:04:30.956Z,11.90
2019-03-20T04:06:59.467Z,12.53
2019-03-20T04:09:28.032Z,12.87
2019-03-20T04:11:56.614Z,12.93
2019-03-20T04:14:25.171Z,13.17
2019-03-20T04:16:53.651Z,12.40
2019-03-20T04:19:22.141Z,12.27
2019-03-20T04:21:50.560Z,12.47
2019-03-20T04:24:19.051Z,13.27
2019-03-20T04:26:47.567Z,13.00
2019-03-20T04:29:16.063Z,12.23
2019-03-20T04:31:44.548Z,13.03
2019-03-20T04:34:13.025Z,13.40
2019-03-20T04:36:47.720Z,13.40
2019-03-20T04:39:11.568Z,13.17
2019-03-20T04:41:39.992Z,14.03
2019-03-20T04:44:08.404Z,13.60
2019-03-20T04:46:36.835Z,13.27
2019-03-20T04:49:05.332Z,13.20
2019-03-20T04:51:33.739Z,12.47
2019-03-20T04:54:02.576Z,13.27
2019-03-20T04:56:31.376Z,12.07
2019-03-20T04:58:59.788Z,12.87
2019-03-20T05:01:28.236Z,12.03
2019-03-20T05:03:56.700Z,12.03
2019-03-20T05:06:25.176Z,11.93
2019-03-20T05:08:54.817Z,12.60
2019-03-20T05:11:23.298Z,13.27
2019-03-20T05:13:51.725Z,11.73
2019-03-20T05:16:20.229Z,12.43
2019-03-20T05:18:48.633Z,11.83
2019-03-20T05:21:17.116Z,12.23
2019-03-20T05:23:45.536Z,11.77
2019-03-20T05:26:13.944Z,11.80
2019-03-20T05:28:42.380Z,11.50
2019-03-20T05:31:11.189Z,11.80
2019-03-20T05:33:39.720Z,11.27
2019-03-20T05:36:08.192Z,11.57
2019-03-20T05:38:36.604Z,10.60
2019-03-20T05:41:05.201Z,11.37
2019-03-20T05:43:33.617Z,11.13
2019-03-20T05:46:02.193Z,11.00
2019-03-20T05:48:30.662Z,11.23
2019-03-20T05:50:59.142Z,11.87
2019-03-20T05:53:27.570Z,12.13
2019-03-20T05:55:55.986Z,13.43
2019-03-20T05:58:24.409Z,11.17
2019-03-20T06:00:52.798Z,10.30
2019-03-20T06:03:21.504Z,10.87
2019-03-20T06:05:50.106Z,10.33
2019-03-20T06:08:18.506Z,11.30
2019-03-20T06:10:46.926Z,12.80
2019-03-20T06:13:15.354Z,12.37
2019-03-20T06:15:43.794Z,11.87
2019-03-20T06:18:12.550Z,10.87
2019-03-20T06:20:41.390Z,11.90
2019-03-20T06:23:11.243Z,11.40
2019-03-20T06:25:39.919Z,10.97
2019-03-20T06:28:08.435Z,11.13
2019-03-20T06:30:36.935Z,10.97
2019-03-20T06:33:05.399Z,11.30
2019-03-20T06:35:33.823Z,10.50
2019-03-20T06:38:02.330Z,11.40
2019-03-20T06:40:30.755Z,9.90
2019-03-20T06:42:59.238Z,9.23
2019-03-20T06:45:27.718Z,11.30
2019-03-20T06:47:56.258Z,10.10
2019-03-20T06:50:24.684Z,10.53
2019-03-20T06:52:53.268Z,8.57
2019-03-20T06:55:22.072Z,9.63
2019-03-20T06:57:50.565Z,10.00
2019-03-20T07:00:53.537Z,9.33
2019-03-20T07:03:50.449Z,8.77
2019-03-20T07:06:30.901Z,8.93
2019-03-20T07:09:10.141Z,9.57
2019-03-20T07:11:38.828Z,9.63
2019-03-20T07:14:07.309Z,9.17
2019-03-20T07:16:35.810Z,9.00
2019-03-20T07:19:04.809Z,8.90
2019-03-20T07:21:33.213Z,9.37
2019-03-20T07:24:01.637Z,8.30
2019-03-20T07:26:30.160Z,7.93
2019-03-20T07:28:58.573Z,8.63
2019-03-20T07:31:27.065Z,7.47
2019-03-20T07:33:55.577Z,8.03
2019-03-20T07:36:24.021Z,8.63
2019-03-20T07:38:52.433Z,8.60
2019-03-20T07:41:20.933Z,8.20
2019-03-20T07:43:49.426Z,7.70
2019-03-20T07:46:17.816Z,7.70
2019-03-20T07:48:46.249Z,8.60
2019-03-20T07:51:14.729Z,7.90
2019-03-20T07:53:43.489Z,7.73
2019-03-20T07:56:11.977Z,7.30
2019-03-20T07:58:40.442Z,7.27
2019-03-20T08:01:08.873Z,6.97
2019-03-20T08:03:37.279Z,7.63
2019-03-20T08:06:05.765Z,7.67
2019-03-20T08:08:34.245Z,7.47
2019-03-20T08:11:02.722Z,7.40
2019-03-20T08:13:31.149Z,7.30
2019-03-20T08:15:59.546Z,7.77
2019-03-20T08:18:28.011Z,7.23
2019-03-20T08:20:56.407Z,7.17
2019-03-20T08:23:24.822Z,7.33
2019-03-20T08:25:53.299Z,8.07
2019-03-20T08:28:21.762Z,8.03
2019-03-20T08:30:50.270Z,8.00
2019-03-20T08:33:18.660Z,8.90
2019-03-20T08:35:47.122Z,7.97
2019-03-20T08:38:18.564Z,8.97
2019-03-20T08:40:45.802Z,9.97
2019-03-20T08:43:14.178Z,8.50
2019-03-20T08:45:42.683Z,8.70
2019-03-20T08:48:11.158Z,8.77
2019-03-20T08:50:39.642Z,9.50
2019-03-20T08:53:08.067Z,9.47
2019-03-20T08:55:36.474Z,10.50
2019-03-20T08:58:04.951Z,10.10
2019-03-20T09:00:33.459Z,9.60
2019-03-20T09:03:01.940Z,9.23
2019-03-20T09:05:30.687Z,11.27
2019-03-20T09:07:59.087Z,10.50
2019-03-20T09:10:27.581Z,11.13
2019-03-20T09:12:56.052Z,11.20
2019-03-20T09:15:24.533Z,11.87
2019-03-20T09:17:53.444Z,11.40
2019-03-20T09:20:21.931Z,11.97
2019-03-20T09:22:50.767Z,11.83
2019-03-20T09:25:19.251Z,11.33
2019-03-20T09:27:47.729Z,12.73
2019-03-20T09:30:17.208Z,12.23
2019-03-20T09:32:45.634Z,13.20
2019-03-20T09:35:14.111Z,13.27
2019-03-20T09:37:51.395Z,13.37
2019-03-20T09:40:13.759Z,13.43
2019-03-20T09:42:42.189Z,13.77
2019-03-20T09:45:11.527Z,14.63
2019-03-20T09:47:40.081Z,15.27
2019-03-20T09:50:09.735Z,15.30
2019-03-20T09:52:38.243Z,15.17
2019-03-20T09:55:07.729Z,15.30
2019-03-20T09:57:37.240Z,14.67
2019-03-20T10:00:12.100Z,14.47
2019-03-20T10:02:41.004Z,15.33
2019-03-20T10:05:10.043Z,15.30
2019-03-20T10:07:39.021Z,15.27
2019-03-20T10:10:08.965Z,14.90
2019-03-20T10:12:37.940Z,15.53
2019-03-20T10:15:08.752Z,16.20
2019-03-20T10:17:37.775Z,15.03
2019-03-20T10:20:07.915Z,13.97
2019-03-20T10:22:38.945Z,13.07
2019-03-20T10:25:07.915Z,13.07
2019-03-20T10:27:36.965Z,44.13
2019-03-20T10:30:08.304Z,12.70
2019-03-20T10:32:37.317Z,11.57
2019-03-20T10:35:07.390Z,10.90
2019-03-20T10:37:36.333Z,11.17
2019-03-20T10:40:06.582Z,10.33
2019-03-20T10:42:35.612Z,10.17
2019-03-20T10:45:05.921Z,10.40
2019-03-20T10:47:34.868Z,10.43
2019-03-20T10:50:04.672Z,9.97
2019-03-20T10:52:33.677Z,10.27
2019-03-20T10:55:02.640Z,9.47
2019-03-20T10:57:31.552Z,9.67
2019-03-20T11:00:00.447Z,8.30
2019-03-20T11:02:29.400Z,9.10
2019-03-20T11:04:58.265Z,8.10
2019-03-20T11:07:27.307Z,7.93
2019-03-20T11:09:56.261Z,7.93
2019-03-20T11:12:25.364Z,8.00
2019-03-20T11:14:54.308Z,7.97
2019-03-20T11:17:23.289Z,7.70
2019-03-20T11:19:52.161Z,7.73
2019-03-20T11:22:21.041Z,7.80
2019-03-20T11:24:49.936Z,7.77
2019-03-20T11:27:18.953Z,7.80
2019-03-20T11:29:47.914Z,7.20
2019-03-20T11:32:16.868Z,7.33
2019-03-20T11:34:45.854Z,7.33
2019-03-20T11:37:14.799Z,7.70
2019-03-20T11:39:44.126Z,7.20
2019-03-20T11:42:13.197Z,7.47
2019-03-20T11:44:42.213Z,7.50
2019-03-20T11:47:11.278Z,8.20
2019-03-20T11:49:40.305Z,7.67
2019-03-20T11:52:09.266Z,7.03
2019-03-20T11:54:38.186Z,7.30
2019-03-20T11:57:07.161Z,7.50
2019-03-20T11:59:36.038Z,7.00
2019-03-20T12:02:05.164Z,7.17
2019-03-20T12:04:36.996Z,5.30
2019-03-20T12:07:05.906Z,5.80
2019-03-20T12:09:40.940Z,5.50
2019-03-20T12:12:05.611Z,5.50
2019-03-20T12:14:35.605Z,5.90
2019-03-20T12:17:04.659Z,5.50
2019-03-20T12:19:44.462Z,5.23
2019-03-20T12:22:04.290Z,5.90
2019-03-20T12:24:33.242Z,5.40
2019-03-20T12:27:02.122Z,6.70
2019-03-20T12:29:31.319Z,5.90
2019-03-20T12:32:00.362Z,6.10
2019-03-20T12:34:29.310Z,6.63
2019-03-20T12:36:58.595Z,5.73
2019-03-20T12:39:27.638Z,6.13
2019-03-20T12:41:56.975Z,6.13
2019-03-20T12:44:25.995Z,6.77
2019-03-20T12:46:54.971Z,6.47
2019-03-20T12:49:24.064Z,6.50
2019-03-20T12:51:53.386Z,7.03
2019-03-20T12:54:22.763Z,6.77
2019-03-20T12:56:51.723Z,7.00
2019-03-20T12:59:20.591Z,6.73
2019-03-20T13:01:49.611Z,7.53
2019-03-20T13:04:18.539Z,6.63
2019-03-20T13:06:47.427Z,7.40
2019-03-20T13:09:16.315Z,7.50
2019-03-20T13:11:45.203Z,6.97
2019-03-20T13:14:14.167Z,7.70
2019-03-20T13:16:43.059Z,7.67
2019-03-20T13:19:11.958Z,7.40
2019-03-20T13:21:40.944Z,7.60
2019-03-20T13:24:09.945Z,7.33
2019-03-20T13:26:38.899Z,8.07
2019-03-20T13:29:07.830Z,7.90
2019-03-20T13:31:36.851Z,8.70
2019-03-20T13:34:05.923Z,8.57
2019-03-20T13:36:34.883Z,12.37
2019-03-20T13:39:04.771Z,8.10
2019-03-20T13:41:33.815Z,8.03
2019-03-20T13:44:02.808Z,8.40
2019-03-20T13:46:31.787Z,8.17
2019-03-20T13:49:00.680Z,8.10
2019-03-20T13:51:29.917Z,9.07
2019-03-20T13:53:58.967Z,8.67
2019-03-20T13:56:27.927Z,8.50
2019-03-20T13:58:56.975Z,8.77
2019-03-20T14:01:26.059Z,9.53
2019-03-20T14:03:55.448Z,9.27
2019-03-20T14:06:24.480Z,8.57
2019-03-20T14:08:53.514Z,8.43
2019-03-20T14:11:22.592Z,8.97
2019-03-20T14:13:51.676Z,8.67
2019-03-20T14:16:20.624Z,8.60
2019-03-20T14:18:49.512Z,8.57
2019-03-20T14:21:18.542Z,9.27
2019-03-20T14:23:47.805Z,8.50
2019-03-20T14:26:16.892Z,8.07
2019-03-20T14:28:45.908Z,7.57
2019-03-20T14:31:14.872Z,7.87
2019-03-20T14:33:44.248Z,8.30
2019-03-20T14:36:13.400Z,8.20
2019-03-20T14:38:42.481Z,8.23
2019-03-20T14:41:21.153Z,9.17
2019-03-20T14:43:42.184Z,7.90
2019-03-20T14:46:11.265Z,8.50
2019-03-20T14:48:41.180Z,8.57
2019-03-20T14:51:10.241Z,9.07
2019-03-20T14:53:39.124Z,8.90
2019-03-20T14:56:08.200Z,8.47
2019-03-20T14:58:37.244Z,8.03
2019-03-20T15:01:06.333Z,8.63
2019-03-20T15:03:35.340Z,8.00
2019-03-20T15:06:04.400Z,9.00
2019-03-20T15:08:33.405Z,7.90
2019-03-20T15:11:02.380Z,8.23
2019-03-20T15:13:31.536Z,9.10
2019-03-20T15:16:04.870Z,8.10
2019-03-20T15:18:33.881Z,8.90
2019-03-20T15:21:02.953Z,7.93
2019-03-20T15:23:32.029Z,8.47
2019-03-20T15:26:07.105Z,8.53
2019-03-20T15:28:36.413Z,8.43
2019-03-20T15:31:05.461Z,8.53
2019-03-20T15:33:34.466Z,8.17
2019-03-20T15:36:03.497Z,8.10
2019-03-20T15:38:32.646Z,8.63
2019-03-20T15:41:02.082Z,8.83
2019-03-20T15:43:31.095Z,9.00
2019-03-20T15:46:00.089Z,8.50
2019-03-20T15:48:29.070Z,8.87
2019-03-20T15:50:57.985Z,9.67
2019-03-20T15:53:26.938Z,8.87
2019-03-20T15:55:56.377Z,9.00
2019-03-20T15:58:26.381Z,8.47
2019-03-20T16:00:55.441Z,8.70
2019-03-20T16:03:25.210Z,9.90
2019-03-20T16:05:54.314Z,10.07
2019-03-20T16:08:23.790Z,9.03
2019-03-20T16:10:53.450Z,8.50
2019-03-20T16:13:22.474Z,9.20
2019-03-20T16:15:52.331Z,9.33
2019-03-20T16:18:21.366Z,9.27
2019-03-20T16:20:50.366Z,10.20
2019-03-20T16:23:19.335Z,9.70
2019-03-20T16:25:48.688Z,9.30
2019-03-20T16:28:17.663Z,9.60
2019-03-20T16:30:46.698Z,10.73
2019-03-20T16:33:15.796Z,11.30
2019-03-20T16:35:44.916Z,10.20
2019-03-20T16:38:13.955Z,9.13
2019-03-20T16:40:43.035Z,9.57
2019-03-20T16:43:12.005Z,8.97
2019-03-20T16:45:41.247Z,9.80
2019-03-20T16:48:10.442Z,10.17
2019-03-20T16:50:39.497Z,11.37
2019-03-20T16:53:08.559Z,10.40
2019-03-20T16:55:37.655Z,9.87
2019-03-20T16:58:06.768Z,9.20
2019-03-20T17:00:35.872Z,9.30
2019-03-20T17:03:05.112Z,9.93
2019-03-20T17:05:34.175Z,9.93
2019-03-20T17:08:03.332Z,9.43
2019-03-20T17:10:34.907Z,10.10
2019-03-20T17:13:04.283Z,9.07
2019-03-20T17:15:33.439Z,9.17
2019-03-20T17:18:02.588Z,9.20
2019-03-20T17:20:31.580Z,9.33
2019-03-20T17:23:00.693Z,10.37
2019-03-20T17:25:29.791Z,10.23
2019-03-20T17:27:58.836Z,10.67
2019-03-20T17:30:30.092Z,10.90
2019-03-20T17:32:59.167Z,10.77
2019-03-20T17:35:28.387Z,10.80
2019-03-20T17:37:57.472Z,10.73
2019-03-20T17:40:26.989Z,10.97
2019-03-20T17:42:56.503Z,11.67
2019-03-20T17:45:26.676Z,16.63
2019-03-20T17:47:55.872Z,12.80
2019-03-20T17:50:26.630Z,17.03
2019-03-20T17:52:55.697Z,15.53
2019-03-20T17:55:24.756Z,21.00
2019-03-20T17:57:53.800Z,11.90
2019-03-20T18:00:42.011Z,15.17
2019-03-20T18:03:11.136Z,18.30
2019-03-20T18:05:40.276Z,17.30
2019-03-20T18:08:09.248Z,16.23
2019-03-20T18:10:38.690Z,14.90
2019-03-20T18:13:08.117Z,15.13
2019-03-20T18:15:37.161Z,15.97
2019-03-20T18:18:07.128Z,15.07
2019-03-20T18:20:36.241Z,15.60
2019-03-20T18:23:06.170Z,16.17
2019-03-20T18:25:35.501Z,15.20
2019-03-20T18:28:05.138Z,16.07
2019-03-20T18:30:34.337Z,15.43
2019-03-20T18:33:03.652Z,18.60
2019-03-20T18:35:32.766Z,16.53
2019-03-20T18:38:01.830Z,15.90
2019-03-20T18:40:31.064Z,14.70
2019-03-20T18:43:00.177Z,14.50
2019-03-20T18:45:29.238Z,13.80
2019-03-20T18:47:58.213Z,14.00
2019-03-20T18:50:27.272Z,15.40
2019-03-20T18:52:56.244Z,14.80
2019-03-20T18:55:25.325Z,17.60
2019-03-20T18:57:54.433Z,18.43
2019-03-20T19:00:25.636Z,17.80
2019-03-20T19:02:55.553Z,18.97
2019-03-20T19:05:28.060Z,17.20
2019-03-20T19:07:57.043Z,17.10
2019-03-20T19:10:26.114Z,17.03
2019-03-20T19:12:55.133Z,16.17
2019-03-20T19:15:24.234Z,15.83
2019-03-20T19:17:53.341Z,16.17
2019-03-20T19:20:22.983Z,15.47
2019-03-20T19:22:52.127Z,15.80
2019-03-20T19:25:21.282Z,16.30
2019-03-20T19:27:50.432Z,15.70
2019-03-20T19:30:20.205Z,16.70
2019-03-20T19:32:49.468Z,16.83
2019-03-20T19:35:18.526Z,16.60
2019-03-20T19:37:47.611Z,16.53
2019-03-20T19:40:17.210Z,17.47
2019-03-20T19:42:46.274Z,17.27
2019-03-20T19:45:15.770Z,17.80
2019-03-20T19:47:44.918Z,16.97
2019-03-20T19:50:14.431Z,16.77
2019-03-20T19:52:43.595Z,18.13
2019-03-20T19:55:13.034Z,19.30
2019-03-20T19:57:42.088Z,18.10
2019-03-20T20:00:14.199Z,18.63
2019-03-20T20:02:43.527Z,17.57
2019-03-20T20:05:16.006Z,18.40
2019-03-20T20:07:44.925Z,18.10
2019-03-20T20:10:14.075Z,17.57
2019-03-20T20:12:43.127Z,16.87
2019-03-20T20:15:14.774Z,17.27
2019-03-20T20:17:43.777Z,17.40
2019-03-20T20:20:14.658Z,17.63
2019-03-20T20:22:43.616Z,17.50
2019-03-20T20:25:12.647Z,17.70
2019-03-20T20:27:42.039Z,16.47
2019-03-20T20:30:15.695Z,17.63
2019-03-20T20:32:44.663Z,17.80
2019-03-20T20:35:13.985Z,18.57
2019-03-20T20:37:43.063Z,18.07
2019-03-20T20:40:14.236Z,18.93
2019-03-20T20:42:43.496Z,18.00
2019-03-20T20:45:12.975Z,19.13
2019-03-20T20:47:42.043Z,20.00
2019-03-20T20:50:11.327Z,18.33
2019-03-20T20:52:40.359Z,18.07
2019-03-20T20:55:10.576Z,18.63
2019-03-20T20:57:39.639Z,18.00
2019-03-20T21:00:12.979Z,19.87
2019-03-20T21:02:42.096Z,18.83
2019-03-20T21:05:11.152Z,19.57
2019-03-20T21:07:40.213Z,20.07
2019-03-20T21:10:10.435Z,19.50
2019-03-20T21:12:39.440Z,19.17
2019-03-20T21:15:19.876Z,20.57
2019-03-20T21:18:24.300Z,19.30
2019-03-20T21:20:53.731Z,20.97
2019-03-20T21:24:08.731Z,22.20
2019-03-20T21:26:43.332Z,23.70
2019-03-20T21:29:36.016Z,24.27
2019-03-20T21:32:15.731Z,25.23
2019-03-20T21:35:35.124Z,26.57
2019-03-20T21:38:06.444Z,27.80
2019-03-20T21:41:15.508Z,28.37
2019-03-20T21:44:28.872Z,30.90
2019-03-20T21:47:31.804Z,33.73
2019-03-20T21:50:07.708Z,34.90
2019-03-20T21:52:37.430Z,32.37
2019-03-20T21:55:50.924Z,33.17
2019-03-20T21:58:29.544Z,32.20
2019-03-20T22:01:46.180Z,31.50
2019-03-20T22:04:15.728Z,32.57
2019-03-20T22:07:22.585Z,32.53
2019-03-20T22:10:34.716Z,33.27
2019-03-20T22:13:41.917Z,29.50
2019-03-20T22:16:51.326Z,28.57
2019-03-20T22:19:51.105Z,27.20
2019-03-20T22:23:12.413Z,27.63
2019-03-20T22:26:03.337Z,25.67
2019-03-20T22:29:18.319Z,25.87
2019-03-20T22:32:16.773Z,27.27
2019-03-20T22:35:02.678Z,28.10
2019-03-20T22:37:32.233Z,27.03
2019-03-20T22:41:10.970Z,27.93
2019-03-20T22:43:51.067Z,26.23
2019-03-20T22:47:00.558Z,25.90
2019-03-20T22:49:55.393Z,27.40
2019-03-20T22:53:00.166Z,27.10
2019-03-20T22:55:48.221Z,27.33
2019-03-20T22:58:29.966Z,26.90
2019-03-20T23:00:59.607Z,27.20
2019-03-20T23:03:35.822Z,26.70
2019-03-20T23:06:05.474Z,26.97
2019-03-20T23:08:35.254Z,27.00
2019-03-20T23:11:04.754Z,27.70
2019-03-20T23:13:41.390Z,28.07
2019-03-20T23:16:06.782Z,27.10
2019-03-20T23:18:36.298Z,27.83
2019-03-20T23:21:05.873Z,28.10
2019-03-20T23:23:36.662Z,28.10
2019-03-20T23:26:06.170Z,27.10
2019-03-20T23:28:35.753Z,27.87
2019-03-20T23:31:05.337Z,28.27
2019-03-20T23:33:34.822Z,28.33
2019-03-20T23:36:04.582Z,29.73
2019-03-20T23:38:34.282Z,28.87
2019-03-20T23:41:03.878Z,28.73
2019-03-20T23:43:33.460Z,29.27
2019-03-20T23:46:03.474Z,27.90
2019-03-20T23:48:49.366Z,28.70
2019-03-20T23:51:18.977Z,28.47
2019-03-20T23:53:49.110Z,29.73
2019-03-20T23:56:18.706Z,29.73
2019-03-20T23:58:48.271Z,28.37
